Terminal Aerodrome Forecast
Issued by NWS

Home | Current Version | Previous Version | Text Only | Print | Product List | Glossary On
Versions: 1 2 3 4 5 6 7 8 9 10 11 12 13 14 15 16 17 18 19 20 21
000
FTUS44 KBMX 130500
TAFTOI
TAF
KTOI 130527Z 1306/1406 00000KT P6SM SKC
     FM131000 00000KT 4SM BR SKC
      TEMPO 1311/1313 1SM BR
     FM131400 17003KT P6SM FEW030
     FM131600 17005KT P6SM SCT040
     FM140100 00000KT P6SM FEW050=

USA.gov is the U.S. government's official web portal to all federal, state and local government web resources and services.